Flight Track Log - Related Links

Times and Time Zones

All times are in EDT time to prevent confusion due to time zone crossing. See the UAL1609 flight status page for this flight to view local times or setup timezone preferences in your user account.

Time Position Orientation Groundspeed Altitude Reporting Facility
EDT Latitude Longitude Course Direction KTS MPH feet Rate Location/Type
Wed 04:55:27 PM 33.6667 -117.8833 90° East 149 171 1,000  Level Southern California TRACON
Wed 04:56:27 PM 33.6167 -117.9000 196° South 166 191 2,900 1,434 Climbing Southern California TRACON
Wed 04:57:20 PM 33.5806 -117.8961 175° South 169 194 3,700 1,357 Climbing Los Angeles Center
Wed 04:58:00 PM 33.4859 -117.6514 54° Northeast  Level FlightAware Approximate
Wed 04:58:22 PM 33.5303 -117.8317 133° Southeast 255 293 5,500  Level Los Angeles Center
Wed 04:59:00 PM 33.5443 -117.5265 66° East  Level FlightAware Approximate
Wed 04:59:24 PM 33.5472 -117.7408 77° East 280 322 7,700  Level Los Angeles Center
Wed 05:00:00 PM 33.5833 -117.3922 90° East  Level FlightAware Approximate
Wed 05:00:26 PM 33.5622 -117.6433 80° East 293 337 10,200  Level Los Angeles Center
Wed 05:01:28 PM 33.5772 -117.5342 81° East 323 372 12,300 2,274 Climbing Los Angeles Center
Wed 05:02:30 PM 33.5867 -117.4153 85° East 355 409 14,900 2,736 Climbing Los Angeles Center
Wed 05:03:33 PM 33.5911 -117.2936 87° East 366 421 18,000 2,784 Climbing Los Angeles Center
Wed 05:04:35 PM 33.5956 -117.1442 88° East 375 432 20,700 2,226 Climbing Los Angeles Center
Wed 05:05:37 PM 33.6008 -117.0106 87° East 397 457 22,600 1,839 Climbing Los Angeles Center
Wed 05:06:39 PM 33.6289 -116.8753 76° East 432 497 24,500 1,790 Climbing Los Angeles Center
Wed 05:07:41 PM 33.6833 -116.7583 61° Northeast 429 494 26,300 1,059 Climbing Los Angeles Center
Wed 05:08:55 PM 33.7722 -116.5808 59° Northeast 443 510 26,900 263 Climbing Los Angeles Center
Wed 05:09:58 PM 33.8650 -116.4850 41° Northeast 443 510 26,900  Level Los Angeles Center
Wed 05:11:00 PM 33.9586 -116.3875 41° Northeast 443 510 26,900 774 Level Los Angeles Center
Wed 05:12:02 PM 34.0525 -116.2911 40° Northeast 444 511 28,500 1,500 Climbing Los Angeles Center
Wed 05:13:04 PM 34.1525 -116.1864 41° Northeast 452 520 30,000 1,452 Climbing Los Angeles Center
Wed 05:14:06 PM 34.2503 -116.0844 41° Northeast 462 532 31,500 1,500 Climbing Los Angeles Center
Wed 05:15:08 PM 34.3461 -115.9828 41° Northeast 461 531 33,100 1,500 Climbing Los Angeles Center
Wed 05:16:10 PM 34.4553 -115.8442 46° Northeast 463 533 34,600 1,500 Climbing Los Angeles Center
Wed 05:17:12 PM 34.5425 -115.7333 46° Northeast 468 539 36,200 1,161 Climbing Los Angeles Center
Wed 05:18:14 PM 34.6292 -115.6250 46° Northeast 453 521 37,000 387 Climbing Los Angeles Center
Wed 05:19:16 PM 34.7192 -115.5106 46° Northeast 453 521 37,000  Level Los Angeles Center
Wed 05:20:19 PM 34.8072 -115.3989 46° Northeast 456 525 37,000  Level Los Angeles Center
Wed 05:21:21 PM 34.8942 -115.2892 46° Northeast 453 521 37,000  Level Los Angeles Center
Wed 05:22:23 PM 34.9989 -115.1556 46° Northeast 455 524 37,000  Level Los Angeles Center
Wed 05:23:25 PM 35.0772 -115.0383 51° Northeast 453 521 37,000  Level Los Angeles Center
Wed 05:24:27 PM 35.1417 -114.9086 59° Northeast 447 514 37,000  Level Los Angeles Center
Wed 05:25:29 PM 35.2067 -114.7786 59° Northeast 449 517 37,000  Level Los Angeles Center
Wed 05:26:31 PM 35.2706 -114.6483 59° Northeast 448 516 37,000  Level Los Angeles Center
Wed 05:27:33 PM 35.3333 -114.5208 59° Northeast 441 507 37,000  Level Los Angeles Center
Wed 05:28:35 PM 35.4092 -114.3650 59° Northeast 444 511 37,000  Level Los Angeles Center
Wed 05:29:38 PM 35.4647 -114.2517 59° Northeast 444 511 37,000  Level Los Angeles Center
Wed 05:30:40 PM 35.5289 -114.1200 59° Northeast 448 516 37,000  Level Los Angeles Center
Wed 05:31:42 PM 35.6047 -113.9664 59° Northeast 444 511 37,000  Level Los Angeles Center
Wed 05:32:44 PM 35.6664 -113.8364 60° Northeast 442 509 37,000  Level Los Angeles Center
Wed 05:33:46 PM 35.7356 -113.6925 59° Northeast 437 503 37,000  Level Los Angeles Center
Wed 05:34:48 PM 35.7878 -113.5806 60° Northeast 434 499 37,000  Level Los Angeles Center
Wed 05:35:50 PM 35.8517 -113.4506 59° Northeast 441 507 37,000  Level Los Angeles Center
Wed 05:36:52 PM 35.9253 -113.2947 60° Northeast 439 505 37,000  Level Los Angeles Center
Wed 05:37:54 PM 35.9853 -113.1653 60° Northeast 434 499 37,000  Level Los Angeles Center
Wed 05:38:56 PM 36.0450 -113.0375 60° Northeast 432 497 37,000  Level Los Angeles Center
Wed 05:39:59 PM 36.1056 -112.9078 60° Northeast 435 501 37,000  Level Los Angeles Center
Wed 05:41:01 PM 36.1656 -112.7778 60° Northeast 436 502 37,000  Level Los Angeles Center
Wed 05:42:03 PM 36.2375 -112.6231 60° Northeast 434 499 37,000  Level Los Angeles Center
Wed 05:43:05 PM 36.2972 -112.4942 60° Northeast 434 499 37,000  Level Los Angeles Center
Wed 05:44:07 PM 36.3572 -112.3672 60° Northeast 431 496 37,000  Level Los Angeles Center
Wed 05:45:09 PM 36.4156 -112.2378 61° Northeast 431 496 37,000  Level Los Angeles Center
Wed 05:46:11 PM 36.4744 -112.1092 60° Northeast 431 496 37,000  Level Los Angeles Center
Wed 05:47:13 PM 36.5325 -111.9833 60° Northeast 425 489 37,000  Level Los Angeles Center
Wed 05:48:15 PM 36.6008 -111.8308 61° Northeast 423 487 37,000  Level Los Angeles Center
Wed 05:49:18 PM 36.6589 -111.7042 60° Northeast 423 487 37,000  Level Los Angeles Center
Wed 05:50:20 PM 36.7158 -111.5781 61° Northeast 422 486 37,000  Level Los Angeles Center
Wed 05:51:22 PM 36.7725 -111.4511 61° Northeast 421 484 37,000  Level Los Angeles Center
Wed 05:52:31 PM 36.8394 -111.3003 61° Northeast 420 483 37,000  Level Denver Center
Wed 05:53:33 PM 36.8972 -111.1717 61° Northeast 424 488 37,000  Level Denver Center
Wed 05:54:35 PM 36.9539 -111.0422 61° Northeast 425 489 37,000  Level Denver Center
Wed 05:55:37 PM 37.0211 -110.8894 61° Northeast 421 484 37,000  Level Denver Center
Wed 05:56:39 PM 37.0783 -110.7619 61° Northeast 421 484 37,000  Level Denver Center
Wed 05:57:41 PM 37.1333 -110.6336 62° Northeast 421 484 37,000  Level Denver Center
Wed 05:58:44 PM 37.1886 -110.5078 61° Northeast 415 478 37,000  Level Denver Center
Wed 05:59:58 PM 37.2550 -110.3556 61° Northeast 416 479 37,000  Level Denver Center
Wed 06:01:00 PM 37.3097 -110.2294 61° Northeast 413 475 37,000  Level Denver Center
Wed 06:02:02 PM 37.3761 -110.0767 61° Northeast 413 475 37,000  Level Denver Center
Wed 06:03:04 PM 37.4278 -109.9553 62° Northeast 411 473 37,000  Level Denver Center
Wed 06:04:06 PM 37.4883 -109.8128 62° Northeast 412 474 37,000  Level Denver Center
Wed 06:05:08 PM 37.5400 -109.6906 62° Northeast 412 474 37,000  Level Denver Center
Wed 06:06:10 PM 37.6003 -109.5481 62° Northeast 412 474 37,000  Level Denver Center
Wed 06:07:13 PM 37.6522 -109.4258 62° Northeast 412 474 37,000  Level Denver Center
Wed 06:08:15 PM 37.7031 -109.3044 62° Northeast 411 473 37,000  Level Denver Center
Wed 06:09:17 PM 37.7633 -109.1614 62° Northeast 413 475 37,000  Level Denver Center
Wed 06:10:20 PM 37.8136 -109.0397 62° Northeast 408 470 37,000  Level Denver Center
Wed 06:11:21 PM 37.8722 -108.8956 63° Northeast 411 473 37,000  Level Denver Center
Wed 06:12:23 PM 37.9231 -108.7747 62° Northeast 406 467 37,000  Level Denver Center
Wed 06:13:25 PM 37.9817 -108.6342 62° Northeast 405 466 37,000  Level Denver Center
Wed 06:14:27 PM 38.0300 -108.5122 63° Northeast 404 465 37,000  Level Denver Center
Wed 06:15:29 PM 38.0836 -108.3803 63° Northeast 409 471 37,000  Level Denver Center
Wed 06:16:31 PM 38.1386 -108.2389 64° Northeast 403 464 37,000  Level Denver Center
Wed 06:17:33 PM 38.1769 -108.1108 69° East 406 467 37,000  Level Denver Center
Wed 06:18:35 PM 38.2222 -107.9619 69° East 405 466 37,000  Level Denver Center
Wed 06:19:37 PM 38.2594 -107.8331 70° East 406 467 37,000  Level Denver Center
Wed 06:20:40 PM 38.3050 -107.6847 69° East 405 466 37,000  Level Denver Center
Wed 06:21:42 PM 38.3347 -107.5519 74° East 406 467 37,000  Level Denver Center
Wed 06:22:44 PM 38.3708 -107.3961 73° East 411 473 37,000  Level Denver Center
Wed 06:23:46 PM 38.4006 -107.2650 74° East 405 466 37,000  Level Denver Center
Wed 06:24:48 PM 38.4342 -107.1175 74° East 405 466 37,000  Level Denver Center
Wed 06:25:50 PM 38.4658 -106.9781 74° East 410 472 37,000  Level Denver Center
Wed 06:26:52 PM 38.4981 -106.8422 73° East 403 464 37,000  Level Denver Center
Wed 06:27:54 PM 38.5311 -106.7042 73° East 407 468 37,000  Level Denver Center
Wed 06:28:56 PM 38.5783 -106.5747 65° Northeast 402 463 37,000  Level Denver Center
Wed 06:29:58 PM 38.6392 -106.4228 63° Northeast 402 463 37,000  Level Denver Center
Wed 06:31:00 PM 38.6903 -106.2939 63° Northeast 406 467 37,000  Level Denver Center
Wed 06:32:02 PM 38.7472 -106.1517 63° Northeast 408 470 37,000  Level Denver Center
Wed 06:33:04 PM 38.7981 -106.0228 63° Northeast 408 470 37,000  Level Denver Center
Wed 06:34:06 PM 38.8494 -105.8911 63° Northeast 411 473 37,000  Level Denver Center
Wed 06:35:09 PM 38.9011 -105.7614 63° Northeast 411 473 37,000  Level Denver Center
Wed 06:36:23 PM 38.9625 -105.6028 63° Northeast 414 476 37,000  Level Denver Center
Wed 06:37:25 PM 39.0144 -105.4708 63° Northeast 415 478 37,000  Level Denver Center
Wed 06:38:27 PM 39.0758 -105.3122 63° Northeast 416 479 37,000  Level Denver Center
Wed 06:39:29 PM 39.1267 -105.1811 63° Northeast 412 474 37,000  Level Denver Center
Wed 06:40:31 PM 39.1789 -105.0489 63° Northeast 414 476 37,000  Level Denver Center
Wed 06:41:33 PM 39.2292 -104.9172 64° Northeast 412 474 37,000  Level Denver Center
Wed 06:42:35 PM 39.2786 -104.7850 64° Northeast 413 475 37,000  Level Denver Center
Wed 06:43:37 PM 39.3389 -104.6261 64° Northeast 415 478 37,000  Level Denver Center
Wed 06:44:39 PM 39.3886 -104.4933 64° Northeast 417 480 37,000  Level Denver Center
Wed 06:45:41 PM 39.4386 -104.3603 64° Northeast 417 480 37,000  Level Denver Center
Wed 06:46:43 PM 39.4881 -104.2269 64° Northeast 416 479 37,000  Level Denver Center
Wed 06:47:45 PM 39.5381 -104.0939 64° Northeast 415 478 37,000  Level Denver Center
Wed 06:48:47 PM 39.5986 -103.9328 64° Northeast 415 478 37,000  Level Denver Center
Wed 06:49:49 PM 39.6475 -103.7981 65° Northeast 414 476 37,000  Level Denver Center
Wed 06:50:51 PM 39.6969 -103.6656 64° Northeast 407 468 37,000  Level Denver Center
Wed 06:51:53 PM 39.7469 -103.5314 64° Northeast 413 475 37,000  Level Denver Center
Wed 06:52:55 PM 39.7953 -103.3958 65° Northeast 414 476 37,000  Level Denver Center
Wed 06:53:57 PM 39.8447 -103.2611 64° Northeast 414 476 37,000  Level Denver Center
Wed 06:54:58 PM 39.8933 -103.1258 65° Northeast 414 476 37,000  Level Denver Center
Wed 06:56:00 PM 39.9528 -102.9653 64° Northeast 413 475 37,000  Level Denver Center
Wed 06:57:02 PM 40.0000 -102.8303 65° Northeast 410 472 37,000  Level Denver Center
Wed 06:58:04 PM 40.0486 -102.6906 66° East 415 478 37,000  Level Denver Center
Wed 06:59:06 PM 40.1022 -102.5403 65° Northeast 412 474 37,000  Level Denver Center
Wed 07:00:08 PM 40.1489 -102.4100 65° Northeast 412 474 37,000  Level Denver Center
Wed 07:01:10 PM 40.2003 -102.2564 66° East 413 475 37,000  Level Denver Center
Wed 07:02:12 PM 40.2456 -102.1253 66° East 414 476 37,000  Level Denver Center
Wed 07:03:14 PM 40.2919 -101.9956 65° Northeast 412 474 37,000  Level Denver Center
Wed 07:04:15 PM 40.3456 -101.8428 65° Northeast 414 476 37,000  Level Denver Center
Wed 07:05:17 PM 40.3906 -101.7106 66° East 415 478 37,000  Level Denver Center
Wed 07:06:19 PM 40.4419 -101.5569 66° East 413 475 37,000  Level Denver Center
Wed 07:07:21 PM 40.4869 -101.4236 66° East 417 480 37,000  Level Denver Center
Wed 07:08:23 PM 40.5400 -101.2700 66° East 415 478 37,000  Level Denver Center
Wed 07:09:25 PM 40.5839 -101.1383 66° East 413 475 37,000  Level Denver Center
Wed 07:10:27 PM 40.6350 -100.9844 66° East 413 475 37,000  Level Denver Center
Wed 07:11:29 PM 40.6786 -100.8528 66° East 413 475 37,000  Level Denver Center
Wed 07:12:31 PM 40.7264 -100.6989 68° East 414 476 37,000  Level Denver Center
Wed 07:13:33 PM 40.7725 -100.5669 65° Northeast 417 480 37,000  Level Denver Center
Wed 07:14:36 PM 40.8242 -100.4169 65° Northeast 412 474 37,000  Level Denver Center
Wed 07:15:38 PM 40.8667 -100.2853 67° East 408 470 37,000  Level Denver Center
Wed 07:16:40 PM 40.9172 -100.1314 66° East 409 471 37,000  Level Denver Center
Wed 07:17:42 PM 40.9606 -99.9986 67° East 411 473 37,000  Level Denver Center
Wed 07:18:44 PM 41.0097 -99.8444 67° East 410 472 37,000  Level Denver Center
Wed 07:19:46 PM 41.0536 -99.7078 67° East 410 472 37,000  Level Denver Center
Wed 07:20:48 PM 41.1017 -99.5561 67° East 410 472 37,000  Level Denver Center
Wed 07:21:50 PM 41.1428 -99.4297 67° East 409 471 37,000  Level Denver Center
Wed 07:22:52 PM 41.1953 -99.2611 67° East 411 473 37,000  Level Denver Center
Wed 07:23:54 PM 41.2392 -99.1211 67° East 409 471 37,000  Level Denver Center
Wed 07:24:56 PM 41.2844 -98.9767 67° East 412 474 37,000  Level Denver Center
Wed 07:25:58 PM 41.3300 -98.8339 67° East 415 478 37,000  Level Denver Center
Wed 07:27:00 PM 41.3736 -98.6894 68° East 414 476 37,000  Level Denver Center
Wed 07:27:37 PM 41.3839 -98.6483 72° East 411 473 37,000  Level Minneapolis Center
Wed 07:28:51 PM 41.4419 -98.4600 68° East 419 482 37,000  Level Minneapolis Center
Wed 07:29:54 PM 41.4983 -98.2767 68° East 440 506 37,000  Level Minneapolis Center
Wed 07:30:56 PM 41.5486 -98.1119 68° East 441 507 37,000  Level Minneapolis Center
Wed 07:31:58 PM 41.5856 -97.9903 68° East 443 510 37,000  Level Minneapolis Center
Wed 07:33:00 PM 41.6381 -97.8103 69° East 434 499 37,000  Level Minneapolis Center
Wed 07:34:02 PM 41.6819 -97.6672 68° East 421 484 37,000  Level Minneapolis Center
Wed 07:35:04 PM 41.7317 -97.4953 69° East 415 478 37,000  Level Minneapolis Center
Wed 07:36:07 PM 41.7719 -97.3522 69° East 412 474 37,000  Level Minneapolis Center
Wed 07:37:09 PM 41.8153 -97.2083 68° East 414 476 37,000  Level Minneapolis Center
Wed 07:38:11 PM 41.8569 -97.0639 69° East 415 478 37,000  Level Minneapolis Center
Wed 07:39:13 PM 41.8975 -96.9217 69° East 410 472 37,000  Level Minneapolis Center
Wed 07:40:15 PM 41.9386 -96.7761 69° East 413 475 37,000  Level Minneapolis Center
Wed 07:41:17 PM 41.9803 -96.6314 69° East 414 476 37,000  Level Minneapolis Center
Wed 07:42:19 PM 42.0286 -96.4575 69° East 414 476 37,000  Level Minneapolis Center
Wed 07:43:21 PM 42.0694 -96.3119 69° East 413 475 37,000  Level Minneapolis Center
Wed 07:44:23 PM 42.1103 -96.1642 70° East 420 483 37,000  Level Minneapolis Center
Wed 07:45:25 PM 42.1514 -96.0183 69° East 417 480 37,000  Level Minneapolis Center
Wed 07:46:28 PM 42.1922 -95.8708 69° East 418 481 37,000  Level Minneapolis Center
Wed 07:47:30 PM 42.2322 -95.7222 70° East 420 483 37,000  Level Minneapolis Center
Wed 07:48:32 PM 42.2731 -95.5733 70° East 421 484 37,000  Level Minneapolis Center
Wed 07:49:46 PM 42.3206 -95.3947 70° East 420 483 37,000  Level Minneapolis Center
Wed 07:50:48 PM 42.3692 -95.2161 70° East 421 484 37,000  Level Minneapolis Center
Wed 07:51:50 PM 42.4000 -95.0969 71° East 420 483 37,000  Level Minneapolis Center
Wed 07:52:53 PM 42.4481 -94.9197 70° East 418 481 37,000  Level Minneapolis Center
Wed 07:53:55 PM 42.4861 -94.7719 71° East 416 479 37,000  Level Minneapolis Center
Wed 07:54:57 PM 42.5253 -94.6256 70° East 414 476 37,000  Level Minneapolis Center
Wed 07:55:59 PM 42.5658 -94.4614 71° East 414 476 37,000  Level Minneapolis Center
Wed 07:57:01 PM 42.6031 -94.3158 71° East 414 476 37,000  Level Minneapolis Center
Wed 07:58:15 PM 42.6061 -94.1600 88° East 419 482 37,000  Level Minneapolis Center
Wed 07:59:17 PM 42.5997 -93.9414 92° East 420 483 37,000  Level Minneapolis Center
Wed 08:00:19 PM 42.5950 -93.8161 93° East 420 483 37,000  Level Minneapolis Center
Wed 08:01:24 PM 42.5889 -93.6269 92° East 423 487 37,000  Level Minneapolis Center
Wed 08:02:26 PM 42.5833 -93.4694 93° East 423 487 37,000  Level Minneapolis Center
Wed 08:03:28 PM 42.5764 -93.2786 93° East 425 489 37,000  Level Minneapolis Center
Wed 08:04:30 PM 42.5706 -93.1200 93° East 426 490 37,000  Level Minneapolis Center
Wed 08:05:22 PM 42.5639 -92.9908 94° East 429 494 37,000 -211 Level Chicago Center
Wed 08:06:24 PM 42.5578 -92.8317 93° East 428 493 36,600 -484 Descending Chicago Center
Wed 08:07:26 PM 42.5494 -92.6403 93° East 431 496 36,000 -290 Descending Chicago Center
Wed 08:08:28 PM 42.5431 -92.4819 93° East 427 491 36,000  Level Chicago Center
Wed 08:09:30 PM 42.5350 -92.3242 94° East 427 491 36,000  Level Chicago Center
Wed 08:10:32 PM 42.5281 -92.1653 93° East 427 491 36,000 -194 Level Chicago Center
Wed 08:11:34 PM 42.5233 -91.9753 92° East 426 490 35,600 -581 Descending Chicago Center
Wed 08:12:36 PM 42.5244 -91.8153 89° East 432 497 34,800 -823 Descending Chicago Center
Wed 08:13:38 PM 42.5250 -91.6567 90° East 433 498 33,900 -912 Descending Chicago Center
Wed 08:14:41 PM 42.5258 -91.4972 90° East 432 497 32,900 -1,056 Descending Chicago Center
Wed 08:15:43 PM 42.5269 -91.3131 89° East 415 478 31,700 -1,065 Descending Chicago Center
Wed 08:16:45 PM 42.5336 -91.1622 87° East 421 484 30,700 -871 Descending Chicago Center
Wed 08:17:47 PM 42.6103 -91.0556 46° Northeast 407 468 29,900 -871 Descending Chicago Center
Wed 08:18:49 PM 42.6844 -90.9444 48° Northeast 417 480 28,900 -968 Descending Chicago Center
Wed 08:19:51 PM 42.6553 -90.7514 102° East 450 518 27,900 -919 Descending Chicago Center
Wed 08:20:53 PM 42.6317 -90.5842 101° East 455 524 27,000 -919 Descending Chicago Center
Wed 08:21:55 PM 42.6083 -90.4172 101° East 456 525 26,000 -871 Descending Chicago Center
Wed 08:22:57 PM 42.5850 -90.2483 101° East 460 529 25,200 -968 Descending Chicago Center
Wed 08:23:59 PM 42.5619 -90.0842 101° East 450 518 24,000 -1,161 Descending Chicago Center
Wed 08:25:01 PM 42.5319 -89.8836 101° East 441 507 22,800 -1,056 Descending Chicago Center
Wed 08:26:04 PM 42.5164 -89.7244 98° East 428 493 21,800 -1,104 Descending Chicago Center
Wed 08:27:06 PM 42.5147 -89.5633 91° East 428 493 20,500 -1,355 Descending Chicago Center
Wed 08:28:08 PM 42.5119 -89.4086 91° East 416 479 19,000 -1,210 Descending Chicago Center
Wed 08:29:10 PM 42.5092 -89.2514 91° East 417 480 18,000 -968 Descending Chicago Center
Wed 08:30:12 PM 42.5067 -89.0714 91° East 412 474 17,000 -1,403 Descending Chicago Center
Wed 08:31:14 PM 42.5011 -88.9228 93° East 401 461 15,100 -1,597 Descending Chicago Center
Wed 08:32:16 PM 42.4619 -88.7889 112° Southeast 380 437 13,700 -1,306 Descending Chicago Center
Wed 08:33:18 PM 42.4228 -88.6600 112° Southeast 373 429 12,400 -1,548 Descending Chicago Center
Wed 08:34:20 PM 42.3842 -88.5339 112° Southeast 368 423 10,500 -1,161 Descending Chicago Center
Wed 08:35:22 PM 42.3428 -88.3933 112° Southeast 346 398 10,000 -290 Descending Chicago Center
Wed 08:36:24 PM 42.2867 -88.3008 129° Southeast 344 396 9,900 -528 Descending Chicago Center
Wed 08:37:27 PM 42.2325 -88.2097 129° Southeast 319 367 8,900 -912 Descending Chicago Center
Wed 08:38:29 PM 42.1744 -88.1344 136° Southeast 298 343 8,000 -435 Descending Chicago Center
Wed 08:39:31 PM 42.0867 -88.0808 156° South 289 333 8,000  Level Chicago Center
Wed 08:40:17 PM 42.0333 -88.0333 147° Southeast 291 335 8,000 -113 Level Chicago TRACON
Wed 08:41:17 PM 41.9667 -87.9833 151° Southeast 269 310 7,800 -500 Descending Chicago TRACON
Wed 08:42:17 PM 41.9167 -87.9167 135° Southeast 253 291 7,000 -684 Descending Chicago TRACON
Wed 08:43:11 PM 41.9000 -87.8500 109° East 211 243 6,500 -992 Descending Chicago TRACON
Wed 08:44:18 PM 41.9000 -87.7667 90° East 200 230 5,000 -1,417 Descending Chicago TRACON
Wed 08:45:18 PM 41.9167 -87.7000 71° East 210 242 3,500 -1,150 Descending Chicago TRACON
Wed 08:46:18 PM 41.9500 -87.7500 312° West 179 206 2,700 -800 Descending Chicago TRACON

Login

Don't have an account? Register now (free) for customized features, flight alerts, and more!